sensor_id;sensor_type;location;lat;lon;timestamp;temperature;humidity
6291;DHT22;3178;48.730;8.990;2023-04-03T00:01:31;3.90;99.90
6291;DHT22;3178;48.730;8.990;2023-04-03T00:03:57;3.90;99.90
6291;DHT22;3178;48.730;8.990;2023-04-03T00:06:23;3.90;99.90
6291;DHT22;3178;48.730;8.990;2023-04-03T00:08:49;3.90;99.90
6291;DHT22;3178;48.730;8.990;2023-04-03T00:11:15;3.90;99.90
6291;DHT22;3178;48.730;8.990;2023-04-03T00:13:41;3.90;99.90
6291;DHT22;3178;48.730;8.990;2023-04-03T00:16:08;3.90;99.90
6291;DHT22;3178;48.730;8.990;2023-04-03T00:18:35;3.90;99.90
6291;DHT22;3178;48.730;8.990;2023-04-03T00:21:00;3.90;99.90
6291;DHT22;3178;48.730;8.990;2023-04-03T00:23:26;3.90;99.90
6291;DHT22;3178;48.730;8.990;2023-04-03T00:25:52;3.90;99.90
6291;DHT22;3178;48.730;8.990;2023-04-03T00:28:18;3.80;99.90
6291;DHT22;3178;48.730;8.990;2023-04-03T00:30:44;3.80;99.90
6291;DHT22;3178;48.730;8.990;2023-04-03T00:33:13;3.80;99.90
6291;DHT22;3178;48.730;8.990;2023-04-03T00:35:39;3.80;99.90
6291;DHT22;3178;48.730;8.990;2023-04-03T00:38:05;3.80;99.90
6291;DHT22;3178;48.730;8.990;2023-04-03T00:40:36;3.80;99.90
6291;DHT22;3178;48.730;8.990;2023-04-03T00:43:02;3.80;99.90
6291;DHT22;3178;48.730;8.990;2023-04-03T00:47:57;3.80;99.90
6291;DHT22;3178;48.730;8.990;2023-04-03T00:50:26;3.70;99.90
6291;DHT22;3178;48.730;8.990;2023-04-03T00:52:52;3.70;99.90
6291;DHT22;3178;48.730;8.990;2023-04-03T00:55:18;3.80;99.90
6291;DHT22;3178;48.730;8.990;2023-04-03T00:57:45;3.80;99.90
6291;DHT22;3178;48.730;8.990;2023-04-03T01:00:13;3.80;99.90
6291;DHT22;3178;48.730;8.990;2023-04-03T01:02:39;3.80;99.90
6291;DHT22;3178;48.730;8.990;2023-04-03T01:05:08;3.80;99.90
6291;DHT22;3178;48.730;8.990;2023-04-03T01:07:34;3.80;99.90
6291;DHT22;3178;48.730;8.990;2023-04-03T01:10:05;3.80;99.90
6291;DHT22;3178;48.730;8.990;2023-04-03T01:12:34;3.80;99.90
6291;DHT22;3178;48.730;8.990;2023-04-03T01:15:13;3.80;99.90
6291;DHT22;3178;48.730;8.990;2023-04-03T01:17:43;3.80;99.90
6291;DHT22;3178;48.730;8.990;2023-04-03T01:20:35;3.80;99.90
6291;DHT22;3178;48.730;8.990;2023-04-03T01:25:51;3.70;99.90
6291;DHT22;3178;48.730;8.990;2023-04-03T01:28:30;3.80;99.90
6291;DHT22;3178;48.730;8.990;2023-04-03T01:33:41;3.80;99.90
6291;DHT22;3178;48.730;8.990;2023-04-03T01:36:09;3.80;99.90
6291;DHT22;3178;48.730;8.990;2023-04-03T01:38:35;3.90;99.90
6291;DHT22;3178;48.730;8.990;2023-04-03T01:41:01;3.80;99.90
6291;DHT22;3178;48.730;8.990;2023-04-03T01:43:26;3.80;99.90
6291;DHT22;3178;48.730;8.990;2023-04-03T01:45:52;3.80;99.90
6291;DHT22;3178;48.730;8.990;2023-04-03T01:48:19;3.80;99.90
6291;DHT22;3178;48.730;8.990;2023-04-03T01:50:45;3.80;99.90
6291;DHT22;3178;48.730;8.990;2023-04-03T01:53:11;3.80;99.90
6291;DHT22;3178;48.730;8.990;2023-04-03T01:55:39;3.80;99.90
6291;DHT22;3178;48.730;8.990;2023-04-03T01:58:05;3.80;99.90
6291;DHT22;3178;48.730;8.990;2023-04-03T02:00:30;3.80;99.90
6291;DHT22;3178;48.730;8.990;2023-04-03T02:02:56;3.90;99.90
6291;DHT22;3178;48.730;8.990;2023-04-03T02:05:22;3.90;99.90
6291;DHT22;3178;48.730;8.990;2023-04-03T02:07:48;3.90;99.90
6291;DHT22;3178;48.730;8.990;2023-04-03T02:10:14;3.80;99.90
6291;DHT22;3178;48.730;8.990;2023-04-03T02:12:39;3.80;99.90
6291;DHT22;3178;48.730;8.990;2023-04-03T02:15:05;3.80;99.90
6291;DHT22;3178;48.730;8.990;2023-04-03T02:17:31;3.80;99.90
6291;DHT22;3178;48.730;8.990;2023-04-03T02:19:57;3.80;99.90
6291;DHT22;3178;48.730;8.990;2023-04-03T02:22:22;3.80;99.90
6291;DHT22;3178;48.730;8.990;2023-04-03T02:24:48;3.80;99.90
6291;DHT22;3178;48.730;8.990;2023-04-03T02:27:14;3.80;99.90
6291;DHT22;3178;48.730;8.990;2023-04-03T02:29:40;3.80;99.90
6291;DHT22;3178;48.730;8.990;2023-04-03T02:32:05;3.80;99.90
6291;DHT22;3178;48.730;8.990;2023-04-03T02:34:31;3.90;99.90
6291;DHT22;3178;48.730;8.990;2023-04-03T02:36:56;3.80;99.90
6291;DHT22;3178;48.730;8.990;2023-04-03T02:39:22;3.70;99.90
6291;DHT22;3178;48.730;8.990;2023-04-03T02:41:47;3.80;99.90
6291;DHT22;3178;48.730;8.990;2023-04-03T02:44:13;3.80;99.90
6291;DHT22;3178;48.730;8.990;2023-04-03T02:46:39;3.70;99.90
6291;DHT22;3178;48.730;8.990;2023-04-03T02:49:04;3.70;99.90
6291;DHT22;3178;48.730;8.990;2023-04-03T02:51:31;3.80;99.90
6291;DHT22;3178;48.730;8.990;2023-04-03T02:53:56;3.80;99.90
6291;DHT22;3178;48.730;8.990;2023-04-03T02:56:22;3.80;99.90
6291;DHT22;3178;48.730;8.990;2023-04-03T02:58:47;3.80;99.90
6291;DHT22;3178;48.730;8.990;2023-04-03T03:01:13;3.70;99.90
6291;DHT22;3178;48.730;8.990;2023-04-03T03:03:39;3.80;99.90
6291;DHT22;3178;48.730;8.990;2023-04-03T03:06:07;3.80;99.90
6291;DHT22;3178;48.730;8.990;2023-04-03T03:08:33;3.70;99.90
6291;DHT22;3178;48.730;8.990;2023-04-03T03:10:59;3.80;99.90
6291;DHT22;3178;48.730;8.990;2023-04-03T03:13:25;3.80;99.90
6291;DHT22;3178;48.730;8.990;2023-04-03T03:15:51;3.80;99.90
6291;DHT22;3178;48.730;8.990;2023-04-03T03:18:17;3.70;99.90
6291;DHT22;3178;48.730;8.990;2023-04-03T03:20:42;3.70;99.90
6291;DHT22;3178;48.730;8.990;2023-04-03T03:23:08;3.60;99.90
6291;DHT22;3178;48.730;8.990;2023-04-03T03:25:37;3.60;99.90
6291;DHT22;3178;48.730;8.990;2023-04-03T03:28:03;3.60;99.90
6291;DHT22;3178;48.730;8.990;2023-04-03T03:30:28;3.60;99.90
6291;DHT22;3178;48.730;8.990;2023-04-03T03:32:54;3.60;99.90
6291;DHT22;3178;48.730;8.990;2023-04-03T03:35:19;3.60;99.90
6291;DHT22;3178;48.730;8.990;2023-04-03T03:37:45;3.60;99.90
6291;DHT22;3178;48.730;8.990;2023-04-03T03:40:11;3.60;99.90
6291;DHT22;3178;48.730;8.990;2023-04-03T03:42:38;3.60;99.90
6291;DHT22;3178;48.730;8.990;2023-04-03T03:45:04;3.60;99.90
6291;DHT22;3178;48.730;8.990;2023-04-03T03:47:30;3.60;99.90
6291;DHT22;3178;48.730;8.990;2023-04-03T03:49:55;3.60;99.90
6291;DHT22;3178;48.730;8.990;2023-04-03T03:52:21;3.60;99.90
6291;DHT22;3178;48.730;8.990;2023-04-03T03:54:47;3.60;99.90
6291;DHT22;3178;48.730;8.990;2023-04-03T03:57:12;3.60;99.90
6291;DHT22;3178;48.730;8.990;2023-04-03T03:59:38;3.60;99.90
6291;DHT22;3178;48.730;8.990;2023-04-03T04:02:05;3.60;99.90
6291;DHT22;3178;48.730;8.990;2023-04-03T04:04:31;3.60;99.90
6291;DHT22;3178;48.730;8.990;2023-04-03T04:06:56;3.60;99.90
6291;DHT22;3178;48.730;8.990;2023-04-03T04:09:22;3.60;99.90
6291;DHT22;3178;48.730;8.990;2023-04-03T04:11:47;3.60;99.90
6291;DHT22;3178;48.730;8.990;2023-04-03T04:14:13;3.60;99.90
6291;DHT22;3178;48.730;8.990;2023-04-03T04:16:38;3.50;99.90
6291;DHT22;3178;48.730;8.990;2023-04-03T04:19:04;3.50;99.90
6291;DHT22;3178;48.730;8.990;2023-04-03T04:21:30;3.60;99.90
6291;DHT22;3178;48.730;8.990;2023-04-03T04:23:55;3.60;99.90
6291;DHT22;3178;48.730;8.990;2023-04-03T04:26:21;3.60;99.90
6291;DHT22;3178;48.730;8.990;2023-04-03T04:28:46;3.60;99.90
6291;DHT22;3178;48.730;8.990;2023-04-03T04:31:12;3.60;99.90
6291;DHT22;3178;48.730;8.990;2023-04-03T04:33:37;3.60;99.90
6291;DHT22;3178;48.730;8.990;2023-04-03T04:36:03;3.60;99.90
6291;DHT22;3178;48.730;8.990;2023-04-03T04:38:28;3.50;99.90
6291;DHT22;3178;48.730;8.990;2023-04-03T04:40:54;3.60;99.90
6291;DHT22;3178;48.730;8.990;2023-04-03T04:43:19;3.50;99.90
6291;DHT22;3178;48.730;8.990;2023-04-03T04:45:45;3.50;99.90
6291;DHT22;3178;48.730;8.990;2023-04-03T04:48:11;3.50;99.90
6291;DHT22;3178;48.730;8.990;2023-04-03T04:50:36;3.50;99.90
6291;DHT22;3178;48.730;8.990;2023-04-03T04:53:02;3.50;99.90
6291;DHT22;3178;48.730;8.990;2023-04-03T04:55:27;3.40;99.90
6291;DHT22;3178;48.730;8.990;2023-04-03T04:57:53;3.40;99.90
6291;DHT22;3178;48.730;8.990;2023-04-03T05:00:18;3.40;99.90
6291;DHT22;3178;48.730;8.990;2023-04-03T05:02:44;3.40;99.90
6291;DHT22;3178;48.730;8.990;2023-04-03T05:05:10;3.40;99.90
6291;DHT22;3178;48.730;8.990;2023-04-03T05:07:35;3.50;99.90
6291;DHT22;3178;48.730;8.990;2023-04-03T05:10:02;3.50;99.90
6291;DHT22;3178;48.730;8.990;2023-04-03T05:12:28;3.50;99.90
6291;DHT22;3178;48.730;8.990;2023-04-03T05:14:54;3.50;99.90
6291;DHT22;3178;48.730;8.990;2023-04-03T05:17:19;3.50;99.90
6291;DHT22;3178;48.730;8.990;2023-04-03T05:19:45;3.50;99.90
6291;DHT22;3178;48.730;8.990;2023-04-03T05:22:11;3.50;99.90
6291;DHT22;3178;48.730;8.990;2023-04-03T05:24:36;3.50;99.90
6291;DHT22;3178;48.730;8.990;2023-04-03T05:27:02;3.50;99.90
6291;DHT22;3178;48.730;8.990;2023-04-03T05:29:28;3.60;99.90
6291;DHT22;3178;48.730;8.990;2023-04-03T05:31:53;3.60;99.90
6291;DHT22;3178;48.730;8.990;2023-04-03T05:34:19;3.60;99.90
6291;DHT22;3178;48.730;8.990;2023-04-03T05:36:44;3.60;99.90
6291;DHT22;3178;48.730;8.990;2023-04-03T05:39:10;3.60;99.90
6291;DHT22;3178;48.730;8.990;2023-04-03T05:41:36;3.60;99.90
6291;DHT22;3178;48.730;8.990;2023-04-03T05:44:01;3.70;99.90
6291;DHT22;3178;48.730;8.990;2023-04-03T05:46:27;3.60;99.90
6291;DHT22;3178;48.730;8.990;2023-04-03T05:48:52;3.60;99.90
6291;DHT22;3178;48.730;8.990;2023-04-03T05:51:24;3.60;99.90
6291;DHT22;3178;48.730;8.990;2023-04-03T05:53:56;3.60;99.90
6291;DHT22;3178;48.730;8.990;2023-04-03T05:56:24;3.60;99.90
6291;DHT22;3178;48.730;8.990;2023-04-03T05:58:50;3.60;99.90
6291;DHT22;3178;48.730;8.990;2023-04-03T06:01:16;3.70;99.90
6291;DHT22;3178;48.730;8.990;2023-04-03T06:03:41;3.70;99.90
6291;DHT22;3178;48.730;8.990;2023-04-03T06:06:07;3.70;99.90
6291;DHT22;3178;48.730;8.990;2023-04-03T06:08:33;3.70;99.90
6291;DHT22;3178;48.730;8.990;2023-04-03T06:11:00;3.70;99.90
6291;DHT22;3178;48.730;8.990;2023-04-03T06:13:27;3.60;99.90
6291;DHT22;3178;48.730;8.990;2023-04-03T06:15:52;3.60;99.90
6291;DHT22;3178;48.730;8.990;2023-04-03T06:18:18;3.60;99.90
6291;DHT22;3178;48.730;8.990;2023-04-03T06:20:43;3.70;99.90
6291;DHT22;3178;48.730;8.990;2023-04-03T06:23:09;3.60;99.90
6291;DHT22;3178;48.730;8.990;2023-04-03T06:25:35;3.60;99.90
6291;DHT22;3178;48.730;8.990;2023-04-03T06:28:01;3.70;99.90
6291;DHT22;3178;48.730;8.990;2023-04-03T06:30:26;3.70;99.90
6291;DHT22;3178;48.730;8.990;2023-04-03T06:32:52;3.70;99.90
6291;DHT22;3178;48.730;8.990;2023-04-03T06:35:18;3.70;99.90
6291;DHT22;3178;48.730;8.990;2023-04-03T06:37:43;3.70;99.90
6291;DHT22;3178;48.730;8.990;2023-04-03T06:40:21;3.70;99.90
6291;DHT22;3178;48.730;8.990;2023-04-03T06:42:47;3.70;99.90
6291;DHT22;3178;48.730;8.990;2023-04-03T06:45:13;3.80;99.90
6291;DHT22;3178;48.730;8.990;2023-04-03T06:47:38;3.90;99.90
6291;DHT22;3178;48.730;8.990;2023-04-03T06:50:05;3.90;99.90
6291;DHT22;3178;48.730;8.990;2023-04-03T06:52:31;4.00;99.90
6291;DHT22;3178;48.730;8.990;2023-04-03T06:54:57;4.10;99.90
6291;DHT22;3178;48.730;8.990;2023-04-03T06:57:25;4.20;99.90
6291;DHT22;3178;48.730;8.990;2023-04-03T06:59:50;4.20;99.90
6291;DHT22;3178;48.730;8.990;2023-04-03T07:02:16;4.30;99.90
6291;DHT22;3178;48.730;8.990;2023-04-03T07:04:42;4.30;99.90
6291;DHT22;3178;48.730;8.990;2023-04-03T07:07:08;4.40;99.90
6291;DHT22;3178;48.730;8.990;2023-04-03T07:09:33;4.40;99.90
6291;DHT22;3178;48.730;8.990;2023-04-03T07:11:59;4.40;99.90
6291;DHT22;3178;48.730;8.990;2023-04-03T07:14:25;4.40;99.90
6291;DHT22;3178;48.730;8.990;2023-04-03T07:16:50;4.50;99.90
6291;DHT22;3178;48.730;8.990;2023-04-03T07:19:16;4.50;99.90
6291;DHT22;3178;48.730;8.990;2023-04-03T07:21:43;4.60;99.90
6291;DHT22;3178;48.730;8.990;2023-04-03T07:24:09;4.60;99.90
6291;DHT22;3178;48.730;8.990;2023-04-03T07:26:34;4.50;99.90
6291;DHT22;3178;48.730;8.990;2023-04-03T07:29:00;4.50;99.90
6291;DHT22;3178;48.730;8.990;2023-04-03T07:31:26;4.50;99.90
6291;DHT22;3178;48.730;8.990;2023-04-03T07:33:51;4.50;99.90
6291;DHT22;3178;48.730;8.990;2023-04-03T07:36:20;4.60;99.90
6291;DHT22;3178;48.730;8.990;2023-04-03T07:38:46;4.60;99.90
6291;DHT22;3178;48.730;8.990;2023-04-03T07:41:14;4.70;99.90
6291;DHT22;3178;48.730;8.990;2023-04-03T07:43:40;4.70;99.90
6291;DHT22;3178;48.730;8.990;2023-04-03T07:46:07;4.80;99.90
6291;DHT22;3178;48.730;8.990;2023-04-03T07:48:33;4.90;99.90
6291;DHT22;3178;48.730;8.990;2023-04-03T07:51:01;5.00;99.90
6291;DHT22;3178;48.730;8.990;2023-04-03T07:53:27;4.90;99.90
6291;DHT22;3178;48.730;8.990;2023-04-03T07:55:53;4.90;99.90
6291;DHT22;3178;48.730;8.990;2023-04-03T07:58:21;5.00;99.90
6291;DHT22;3178;48.730;8.990;2023-04-03T08:00:47;5.10;99.90
6291;DHT22;3178;48.730;8.990;2023-04-03T08:03:13;5.10;99.90
6291;DHT22;3178;48.730;8.990;2023-04-03T08:05:44;5.30;99.90
6291;DHT22;3178;48.730;8.990;2023-04-03T08:08:11;5.40;99.90
6291;DHT22;3178;48.730;8.990;2023-04-03T08:10:37;5.50;99.90
6291;DHT22;3178;48.730;8.990;2023-04-03T08:13:03;5.50;99.90
6291;DHT22;3178;48.730;8.990;2023-04-03T08:15:30;5.60;99.90
6291;DHT22;3178;48.730;8.990;2023-04-03T08:17:57;5.70;99.90
6291;DHT22;3178;48.730;8.990;2023-04-03T08:20:23;5.80;99.90
6291;DHT22;3178;48.730;8.990;2023-04-03T08:22:48;5.80;99.90
6291;DHT22;3178;48.730;8.990;2023-04-03T08:25:14;5.80;99.90
6291;DHT22;3178;48.730;8.990;2023-04-03T08:27:40;5.90;99.90
6291;DHT22;3178;48.730;8.990;2023-04-03T08:30:06;6.00;99.90
6291;DHT22;3178;48.730;8.990;2023-04-03T08:32:33;6.10;99.90
6291;DHT22;3178;48.730;8.990;2023-04-03T08:34:59;6.20;99.90
6291;DHT22;3178;48.730;8.990;2023-04-03T08:37:25;6.20;99.90
6291;DHT22;3178;48.730;8.990;2023-04-03T08:39:51;6.30;99.90
6291;DHT22;3178;48.730;8.990;2023-04-03T08:45:22;6.40;99.90
6291;DHT22;3178;48.730;8.990;2023-04-03T08:47:58;6.30;99.90
6291;DHT22;3178;48.730;8.990;2023-04-03T08:50:47;6.50;99.90
6291;DHT22;3178;48.730;8.990;2023-04-03T08:53:17;6.60;99.90
6291;DHT22;3178;48.730;8.990;2023-04-03T08:55:46;6.70;99.90
6291;DHT22;3178;48.730;8.990;2023-04-03T08:58:29;6.80;99.90
6291;DHT22;3178;48.730;8.990;2023-04-03T09:03:33;6.70;99.90
6291;DHT22;3178;48.730;8.990;2023-04-03T09:06:26;6.60;99.90
6291;DHT22;3178;48.730;8.990;2023-04-03T09:09:14;6.60;99.90
6291;DHT22;3178;48.730;8.990;2023-04-03T09:14:38;6.40;99.90
6291;DHT22;3178;48.730;8.990;2023-04-03T09:17:17;6.40;99.90
6291;DHT22;3178;48.730;8.990;2023-04-03T09:19:57;6.40;99.90
6291;DHT22;3178;48.730;8.990;2023-04-03T09:22:24;6.50;99.90
6291;DHT22;3178;48.730;8.990;2023-04-03T09:24:57;6.60;99.90
6291;DHT22;3178;48.730;8.990;2023-04-03T09:27:24;6.70;99.90
6291;DHT22;3178;48.730;8.990;2023-04-03T09:29:53;6.80;99.90
6291;DHT22;3178;48.730;8.990;2023-04-03T09:32:31;7.00;99.90
6291;DHT22;3178;48.730;8.990;2023-04-03T09:35:13;7.00;99.90
6291;DHT22;3178;48.730;8.990;2023-04-03T09:37:43;7.00;99.90
6291;DHT22;3178;48.730;8.990;2023-04-03T09:40:32;7.10;99.90
6291;DHT22;3178;48.730;8.990;2023-04-03T09:43:24;7.40;99.90
6291;DHT22;3178;48.730;8.990;2023-04-03T09:45:52;7.70;99.90
6291;DHT22;3178;48.730;8.990;2023-04-03T09:48:25;7.70;99.90
6291;DHT22;3178;48.730;8.990;2023-04-03T09:50:56;7.70;99.90
6291;DHT22;3178;48.730;8.990;2023-04-03T09:55:56;7.40;99.90
6291;DHT22;3178;48.730;8.990;2023-04-03T09:58:33;7.40;99.90
6291;DHT22;3178;48.730;8.990;2023-04-03T10:01:01;7.30;99.90
6291;DHT22;3178;48.730;8.990;2023-04-03T10:03:34;7.30;99.90
6291;DHT22;3178;48.730;8.990;2023-04-03T10:06:31;7.20;99.90
6291;DHT22;3178;48.730;8.990;2023-04-03T10:09:03;7.10;99.90
6291;DHT22;3178;48.730;8.990;2023-04-03T10:11:30;7.10;99.90
6291;DHT22;3178;48.730;8.990;2023-04-03T10:13:57;7.20;99.90
6291;DHT22;3178;48.730;8.990;2023-04-03T10:17:21;7.40;99.90
6291;DHT22;3178;48.730;8.990;2023-04-03T10:20:29;7.50;99.90
6291;DHT22;3178;48.730;8.990;2023-04-03T10:22:44;7.50;99.90
6291;DHT22;3178;48.730;8.990;2023-04-03T10:30:34;7.10;99.90
6291;DHT22;3178;48.730;8.990;2023-04-03T10:33:22;7.10;99.90
6291;DHT22;3178;48.730;8.990;2023-04-03T10:36:17;7.00;99.90
6291;DHT22;3178;48.730;8.990;2023-04-03T10:44:17;6.70;99.90
6291;DHT22;3178;48.730;8.990;2023-04-03T10:47:17;6.70;99.90
6291;DHT22;3178;48.730;8.990;2023-04-03T10:50:01;6.70;99.90
6291;DHT22;3178;48.730;8.990;2023-04-03T10:55:34;6.60;99.90
6291;DHT22;3178;48.730;8.990;2023-04-03T10:58:02;6.50;99.90
6291;DHT22;3178;48.730;8.990;2023-04-03T11:00:42;6.50;99.90
6291;DHT22;3178;48.730;8.990;2023-04-03T11:05:53;6.50;99.90
6291;DHT22;3178;48.730;8.990;2023-04-03T11:08:38;6.50;99.90
6291;DHT22;3178;48.730;8.990;2023-04-03T11:11:21;6.50;99.90
6291;DHT22;3178;48.730;8.990;2023-04-03T11:13:54;6.40;99.90
6291;DHT22;3178;48.730;8.990;2023-04-03T11:16:26;6.30;99.90
6291;DHT22;3178;48.730;8.990;2023-04-03T11:18:56;6.30;99.90
6291;DHT22;3178;48.730;8.990;2023-04-03T11:21:28;6.30;99.90
6291;DHT22;3178;48.730;8.990;2023-04-03T11:23:57;6.20;99.90
6291;DHT22;3178;48.730;8.990;2023-04-03T11:26:27;6.20;99.90
6291;DHT22;3178;48.730;8.990;2023-04-03T11:29:04;6.20;99.90
6291;DHT22;3178;48.730;8.990;2023-04-03T11:34:31;6.20;99.90
6291;DHT22;3178;48.730;8.990;2023-04-03T11:37:00;6.20;99.90
6291;DHT22;3178;48.730;8.990;2023-04-03T11:39:30;6.20;99.90
6291;DHT22;3178;48.730;8.990;2023-04-03T11:42:16;6.20;99.90
6291;DHT22;3178;48.730;8.990;2023-04-03T11:44:43;6.10;99.90
6291;DHT22;3178;48.730;8.990;2023-04-03T11:47:10;6.10;99.90
6291;DHT22;3178;48.730;8.990;2023-04-03T11:49:57;6.10;99.90
6291;DHT22;3178;48.730;8.990;2023-04-03T12:05:52;6.20;99.90
6291;DHT22;3178;48.730;8.990;2023-04-03T12:08:28;6.20;99.90
6291;DHT22;3178;48.730;8.990;2023-04-03T12:16:47;6.00;99.90
6291;DHT22;3178;48.730;8.990;2023-04-03T12:19:37;6.10;99.90
6291;DHT22;3178;48.730;8.990;2023-04-03T12:22:21;6.10;99.90
6291;DHT22;3178;48.730;8.990;2023-04-03T12:24:49;6.10;99.90
6291;DHT22;3178;48.730;8.990;2023-04-03T12:27:26;6.10;99.90
6291;DHT22;3178;48.730;8.990;2023-04-03T12:30:00;6.20;99.90
6291;DHT22;3178;48.730;8.990;2023-04-03T12:35:37;6.30;99.90
6291;DHT22;3178;48.730;8.990;2023-04-03T12:38:16;6.40;99.90
6291;DHT22;3178;48.730;8.990;2023-04-03T12:46:48;6.40;99.90
6291;DHT22;3178;48.730;8.990;2023-04-03T12:49:22;6.40;99.90
6291;DHT22;3178;48.730;8.990;2023-04-03T12:51:50;6.30;99.90
6291;DHT22;3178;48.730;8.990;2023-04-03T12:56:47;6.30;99.90
6291;DHT22;3178;48.730;8.990;2023-04-03T12:59:21;6.20;99.90
6291;DHT22;3178;48.730;8.990;2023-04-03T13:01:55;6.20;99.90
6291;DHT22;3178;48.730;8.990;2023-04-03T13:04:21;6.10;99.90
6291;DHT22;3178;48.730;8.990;2023-04-03T13:06:47;6.20;99.90
6291;DHT22;3178;48.730;8.990;2023-04-03T13:09:28;6.10;99.90
6291;DHT22;3178;48.730;8.990;2023-04-03T13:12:00;6.10;99.90
6291;DHT22;3178;48.730;8.990;2023-04-03T13:14:27;6.20;99.90
6291;DHT22;3178;48.730;8.990;2023-04-03T13:16:54;6.10;99.90
6291;DHT22;3178;48.730;8.990;2023-04-03T13:19:24;6.10;99.90
6291;DHT22;3178;48.730;8.990;2023-04-03T13:21:53;6.10;99.90
6291;DHT22;3178;48.730;8.990;2023-04-03T13:24:20;6.10;99.90
6291;DHT22;3178;48.730;8.990;2023-04-03T13:26:46;6.10;99.90
6291;DHT22;3178;48.730;8.990;2023-04-03T13:29:35;6.10;99.90
6291;DHT22;3178;48.730;8.990;2023-04-03T13:32:03;6.00;99.90
6291;DHT22;3178;48.730;8.990;2023-04-03T13:34:40;6.00;99.90
6291;DHT22;3178;48.730;8.990;2023-04-03T13:37:11;6.10;99.90
6291;DHT22;3178;48.730;8.990;2023-04-03T13:39:43;6.10;99.90
6291;DHT22;3178;48.730;8.990;2023-04-03T13:42:27;6.30;99.90
6291;DHT22;3178;48.730;8.990;2023-04-03T14:14:31;7.00;99.90
6291;DHT22;3178;48.730;8.990;2023-04-03T14:16:59;6.90;99.90
6291;DHT22;3178;48.730;8.990;2023-04-03T14:19:29;6.90;99.90
6291;DHT22;3178;48.730;8.990;2023-04-03T14:21:55;6.90;99.90
6291;DHT22;3178;48.730;8.990;2023-04-03T14:24:22;6.90;99.90
6291;DHT22;3178;48.730;8.990;2023-04-03T14:26:49;6.90;99.90
6291;DHT22;3178;48.730;8.990;2023-04-03T14:29:16;6.90;99.90
6291;DHT22;3178;48.730;8.990;2023-04-03T14:31:43;6.90;99.90
6291;DHT22;3178;48.730;8.990;2023-04-03T14:34:11;7.00;99.90
6291;DHT22;3178;48.730;8.990;2023-04-03T14:36:37;7.00;99.40
6291;DHT22;3178;48.730;8.990;2023-04-03T14:39:06;6.90;99.30
6291;DHT22;3178;48.730;8.990;2023-04-03T14:41:32;6.80;99.90
6291;DHT22;3178;48.730;8.990;2023-04-03T14:43:57;6.70;99.90
6291;DHT22;3178;48.730;8.990;2023-04-03T14:46:33;6.70;99.90
6291;DHT22;3178;48.730;8.990;2023-04-03T14:49:00;6.70;99.90
6291;DHT22;3178;48.730;8.990;2023-04-03T14:51:26;6.60;99.90
6291;DHT22;3178;48.730;8.990;2023-04-03T14:53:51;6.60;99.90
6291;DHT22;3178;48.730;8.990;2023-04-03T14:56:21;6.60;99.90
6291;DHT22;3178;48.730;8.990;2023-04-03T14:58:49;6.50;99.90
6291;DHT22;3178;48.730;8.990;2023-04-03T15:01:17;6.50;99.90
6291;DHT22;3178;48.730;8.990;2023-04-03T15:03:44;6.50;99.90
6291;DHT22;3178;48.730;8.990;2023-04-03T15:06:11;6.40;99.90
6291;DHT22;3178;48.730;8.990;2023-04-03T15:08:38;6.40;99.90
6291;DHT22;3178;48.730;8.990;2023-04-03T15:11:03;6.40;99.90
6291;DHT22;3178;48.730;8.990;2023-04-03T15:13:29;6.50;99.80
6291;DHT22;3178;48.730;8.990;2023-04-03T15:15:54;6.60;99.90
6291;DHT22;3178;48.730;8.990;2023-04-03T15:18:23;6.70;99.90
6291;DHT22;3178;48.730;8.990;2023-04-03T15:20:49;6.90;99.10
6291;DHT22;3178;48.730;8.990;2023-04-03T15:23:16;7.00;99.90
6291;DHT22;3178;48.730;8.990;2023-04-03T15:25:47;7.10;97.20
6291;DHT22;3178;48.730;8.990;2023-04-03T15:28:30;7.20;98.00
6291;DHT22;3178;48.730;8.990;2023-04-03T15:30:56;7.30;96.40
6291;DHT22;3178;48.730;8.990;2023-04-03T15:33:23;7.30;96.60
6291;DHT22;3178;48.730;8.990;2023-04-03T15:35:48;7.20;97.50
6291;DHT22;3178;48.730;8.990;2023-04-03T15:38:14;7.00;97.60
6291;DHT22;3178;48.730;8.990;2023-04-03T15:40:40;7.00;97.60
6291;DHT22;3178;48.730;8.990;2023-04-03T15:43:07;6.90;96.90
6291;DHT22;3178;48.730;8.990;2023-04-03T15:45:34;6.80;96.00
6291;DHT22;3178;48.730;8.990;2023-04-03T15:48:01;6.70;96.90
6291;DHT22;3178;48.730;8.990;2023-04-03T15:50:27;6.70;97.30
6291;DHT22;3178;48.730;8.990;2023-04-03T15:52:53;6.70;97.80
6291;DHT22;3178;48.730;8.990;2023-04-03T15:55:25;6.60;95.70
6291;DHT22;3178;48.730;8.990;2023-04-03T15:57:52;6.60;97.20
6291;DHT22;3178;48.730;8.990;2023-04-03T16:00:17;6.60;97.10
6291;DHT22;3178;48.730;8.990;2023-04-03T16:02:45;6.60;97.40
6291;DHT22;3178;48.730;8.990;2023-04-03T16:05:11;6.60;96.70
6291;DHT22;3178;48.730;8.990;2023-04-03T16:07:39;6.70;97.20
6291;DHT22;3178;48.730;8.990;2023-04-03T16:10:06;6.80;97.10
6291;DHT22;3178;48.730;8.990;2023-04-03T16:12:32;6.80;95.80
6291;DHT22;3178;48.730;8.990;2023-04-03T16:14:57;6.70;96.20
6291;DHT22;3178;48.730;8.990;2023-04-03T16:17:23;6.60;95.00
6291;DHT22;3178;48.730;8.990;2023-04-03T16:19:49;6.50;94.40
6291;DHT22;3178;48.730;8.990;2023-04-03T16:22:14;6.40;95.40
6291;DHT22;3178;48.730;8.990;2023-04-03T16:24:40;6.30;95.50
6291;DHT22;3178;48.730;8.990;2023-04-03T16:27:06;6.30;95.20
6291;DHT22;3178;48.730;8.990;2023-04-03T16:29:31;6.30;93.80
6291;DHT22;3178;48.730;8.990;2023-04-03T16:31:57;6.20;94.40
6291;DHT22;3178;48.730;8.990;2023-04-03T16:34:24;6.20;95.50
6291;DHT22;3178;48.730;8.990;2023-04-03T16:36:51;6.30;95.40
6291;DHT22;3178;48.730;8.990;2023-04-03T16:39:17;6.30;96.20
6291;DHT22;3178;48.730;8.990;2023-04-03T16:41:43;6.40;95.10
6291;DHT22;3178;48.730;8.990;2023-04-03T16:44:08;6.40;94.20
6291;DHT22;3178;48.730;8.990;2023-04-03T16:46:35;6.40;94.40
6291;DHT22;3178;48.730;8.990;2023-04-03T16:49:00;6.40;94.40
6291;DHT22;3178;48.730;8.990;2023-04-03T16:51:26;6.40;94.90
6291;DHT22;3178;48.730;8.990;2023-04-03T16:53:52;6.30;93.30
6291;DHT22;3178;48.730;8.990;2023-04-03T16:56:17;6.20;94.30
6291;DHT22;3178;48.730;8.990;2023-04-03T16:58:43;6.10;94.60
6291;DHT22;3178;48.730;8.990;2023-04-03T17:01:16;6.10;94.10
6291;DHT22;3178;48.730;8.990;2023-04-03T17:03:42;6.00;93.80
6291;DHT22;3178;48.730;8.990;2023-04-03T17:06:11;5.90;94.20
6291;DHT22;3178;48.730;8.990;2023-04-03T17:08:42;5.90;94.50
6291;DHT22;3178;48.730;8.990;2023-04-03T17:11:08;5.70;95.20
6291;DHT22;3178;48.730;8.990;2023-04-03T17:13:34;5.60;95.10
6291;DHT22;3178;48.730;8.990;2023-04-03T17:16:00;5.60;95.20
6291;DHT22;3178;48.730;8.990;2023-04-03T17:18:28;5.50;95.70
6291;DHT22;3178;48.730;8.990;2023-04-03T17:20:54;5.50;96.40
6291;DHT22;3178;48.730;8.990;2023-04-03T17:23:20;5.50;97.60
6291;DHT22;3178;48.730;8.990;2023-04-03T17:25:46;5.50;97.00
6291;DHT22;3178;48.730;8.990;2023-04-03T17:28:11;5.50;96.60
6291;DHT22;3178;48.730;8.990;2023-04-03T17:30:37;5.40;97.50
6291;DHT22;3178;48.730;8.990;2023-04-03T17:33:03;5.40;96.80
6291;DHT22;3178;48.730;8.990;2023-04-03T17:35:29;5.40;97.10
6291;DHT22;3178;48.730;8.990;2023-04-03T17:37:55;5.40;97.30
6291;DHT22;3178;48.730;8.990;2023-04-03T17:40:21;5.40;98.00
6291;DHT22;3178;48.730;8.990;2023-04-03T17:42:46;5.40;97.50
6291;DHT22;3178;48.730;8.990;2023-04-03T17:45:12;5.40;97.50
6291;DHT22;3178;48.730;8.990;2023-04-03T17:47:37;5.40;97.00
6291;DHT22;3178;48.730;8.990;2023-04-03T17:50:03;5.40;98.50
6291;DHT22;3178;48.730;8.990;2023-04-03T17:52:29;5.40;96.10
6291;DHT22;3178;48.730;8.990;2023-04-03T17:54:56;5.40;97.50
6291;DHT22;3178;48.730;8.990;2023-04-03T17:57:21;5.40;98.00
6291;DHT22;3178;48.730;8.990;2023-04-03T17:59:47;5.30;97.30
6291;DHT22;3178;48.730;8.990;2023-04-03T18:02:13;5.30;97.50
6291;DHT22;3178;48.730;8.990;2023-04-03T18:04:38;5.30;98.80